createdAt,value
2018-05-31T00:00:05.996Z,98871.51
2018-05-31T00:00:27.284Z,98870.08
2018-05-31T00:00:50.353Z,98871.80
2018-05-31T00:01:11.994Z,98876.47
2018-05-31T00:01:34.199Z,98868.34
2018-05-31T00:01:56.640Z,98875.36
2018-05-31T00:02:18.727Z,98875.88
2018-05-31T00:02:40.435Z,98872.61
2018-05-31T00:03:01.739Z,98877.20
2018-05-31T00:03:23.409Z,98873.42
2018-05-31T00:03:44.660Z,98872.42
2018-05-31T00:04:06.729Z,98881.25
2018-05-31T00:04:28.387Z,98875.07
2018-05-31T00:04:50.510Z,98874.05
2018-05-31T00:05:12.195Z,98879.55
2018-05-31T00:05:33.495Z,98880.47
2018-05-31T00:05:55.252Z,98877.02
2018-05-31T00:06:20.861Z,98883.34
2018-05-31T00:06:42.141Z,98877.53
2018-05-31T00:07:05.181Z,98881.80
2018-05-31T00:07:27.218Z,98878.23
2018-05-31T00:07:49.298Z,98885.25
2018-05-31T00:08:10.635Z,98881.50
2018-05-31T00:08:31.950Z,98881.31
2018-05-31T00:08:53.988Z,98886.50
2018-05-31T00:09:15.657Z,98884.66
2018-05-31T00:09:36.943Z,98888.33
2018-05-31T00:09:58.626Z,98887.63
2018-05-31T00:10:20.690Z,98885.39
2018-05-31T00:10:43.712Z,98883.15
2018-05-31T00:11:06.471Z,98882.75
2018-05-31T00:11:27.761Z,98888.36
2018-05-31T00:11:49.834Z,98885.20
2018-05-31T00:12:15.434Z,98887.34
2018-05-31T00:12:36.770Z,98878.81
2018-05-31T00:12:58.090Z,98887.55
2018-05-31T00:13:19.394Z,98883.80
2018-05-31T00:13:40.706Z,98887.26
2018-05-31T00:14:02.400Z,98888.58
2018-05-31T00:14:24.355Z,98885.53
2018-05-31T00:14:45.597Z,98885.64
2018-05-31T00:15:07.229Z,98879.44
2018-05-31T00:15:30.246Z,98886.86
2018-05-31T00:15:51.504Z,98887.18
2018-05-31T00:16:13.118Z,98887.26
2018-05-31T00:16:35.099Z,98890.02
2018-05-31T00:16:56.346Z,98889.02
2018-05-31T00:17:17.955Z,98889.31
2018-05-31T00:17:40.710Z,98890.42
2018-05-31T00:18:02.705Z,98890.34
2018-05-31T00:18:23.954Z,98888.20
2018-05-31T00:18:45.220Z,98890.96
2018-05-31T00:19:07.582Z,98894.30
2018-05-31T00:19:28.817Z,98886.99
2018-05-31T00:19:51.861Z,98888.91
2018-05-31T00:20:14.874Z,98896.25
2018-05-31T00:20:37.835Z,98890.55
2018-05-31T00:21:00.210Z,98892.28
2018-05-31T00:21:21.910Z,98883.54
2018-05-31T00:21:43.907Z,98884.34
2018-05-31T00:22:05.292Z,98880.37
2018-05-31T00:22:26.571Z,98882.63
2018-05-31T00:22:48.588Z,98883.40
2018-05-31T00:23:11.324Z,98880.86
2018-05-31T00:23:33.695Z,98881.05
2018-05-31T00:23:55.720Z,98883.70
2018-05-31T00:24:18.688Z,98883.08
2018-05-31T00:24:39.929Z,98875.69
2018-05-31T00:25:01.524Z,98882.89
2018-05-31T00:25:23.564Z,98879.62
2018-05-31T00:25:46.555Z,98882.89
2018-05-31T00:26:08.228Z,98880.43
2018-05-31T00:26:29.460Z,98881.45
2018-05-31T00:26:51.855Z,98875.76
2018-05-31T00:27:13.135Z,98879.84
2018-05-31T00:27:34.370Z,98881.86
2018-05-31T00:27:56.741Z,98877.89
2018-05-31T00:28:19.723Z,98879.11
2018-05-31T00:28:41.694Z,98879.80
2018-05-31T00:29:04.676Z,98882.23
2018-05-31T00:29:26.341Z,98876.12
2018-05-31T00:29:47.582Z,98876.86
2018-05-31T00:30:10.649Z,98873.19
2018-05-31T00:30:32.700Z,98879.62
2018-05-31T00:30:54.393Z,98871.69
2018-05-31T00:31:16.068Z,98880.61
2018-05-31T00:31:38.026Z,98873.81
2018-05-31T00:32:00.052Z,98877.78
2018-05-31T00:32:22.095Z,98874.63
2018-05-31T00:32:44.848Z,98877.78
2018-05-31T00:33:06.111Z,98880.64
2018-05-31T00:33:27.698Z,98879.33
2018-05-31T00:33:49.340Z,98877.59
2018-05-31T00:34:10.624Z,98875.53
2018-05-31T00:34:31.910Z,98878.90
2018-05-31T00:34:54.877Z,98877.02
2018-05-31T00:35:16.501Z,98877.72
2018-05-31T00:35:38.259Z,98877.94
2018-05-31T00:35:59.519Z,98883.33
2018-05-31T00:36:22.534Z,98876.72
2018-05-31T00:36:44.934Z,98878.15
2018-05-31T00:37:06.929Z,98881.09
2018-05-31T00:37:29.936Z,98879.26
2018-05-31T00:37:51.239Z,98885.47
2018-05-31T00:38:12.633Z,98883.33
2018-05-31T00:38:34.604Z,98886.09
2018-05-31T00:38:55.858Z,98880.80
2018-05-31T00:39:17.488Z,98882.71
2018-05-31T00:39:38.837Z,98883.55
2018-05-31T00:40:00.431Z,98882.84
2018-05-31T00:40:22.603Z,98886.70
2018-05-31T00:40:45.577Z,98884.58
2018-05-31T00:41:06.811Z,98885.30
2018-05-31T00:41:28.795Z,98888.14
2018-05-31T00:41:51.828Z,98879.28
2018-05-31T00:42:13.848Z,98882.73
2018-05-31T00:42:35.442Z,98887.84
2018-05-31T00:42:56.750Z,98881.52
2018-05-31T00:43:18.338Z,98884.69
2018-05-31T00:43:41.307Z,98882.45
2018-05-31T00:44:02.889Z,98883.47
2018-05-31T00:44:24.098Z,98884.28
2018-05-31T00:44:47.123Z,98888.95
2018-05-31T00:45:09.114Z,98884.39
2018-05-31T00:45:32.641Z,98886.11
2018-05-31T00:45:54.353Z,98885.71
2018-05-31T00:46:17.349Z,98885.71
2018-05-31T00:46:40.084Z,98880.83
2018-05-31T00:47:01.339Z,98887.33
2018-05-31T00:47:22.998Z,98885.90
2018-05-31T00:47:44.369Z,98886.92
2018-05-31T00:48:05.647Z,98890.78
2018-05-31T00:48:27.298Z,98885.49
2018-05-31T00:48:48.939Z,98884.17
2018-05-31T00:49:10.221Z,98882.95
2018-05-31T00:49:33.187Z,98887.00
2018-05-31T00:49:56.198Z,98885.98
2018-05-31T00:50:18.185Z,98882.41
2018-05-31T00:50:39.424Z,98884.06
2018-05-31T00:51:02.217Z,98882.41
2018-05-31T00:51:24.249Z,98885.14
2018-05-31T00:51:45.853Z,98879.45
2018-05-31T00:52:07.079Z,98883.63
2018-05-31T00:52:29.434Z,98884.92
2018-05-31T00:52:51.422Z,98881.77
2018-05-31T00:53:12.805Z,98886.35
2018-05-31T00:53:34.455Z,98882.09
2018-05-31T00:53:56.442Z,98881.66
2018-05-31T00:54:18.414Z,98884.70
2018-05-31T00:54:40.446Z,98882.17
2018-05-31T00:55:02.814Z,98885.73
2018-05-31T00:55:42.651Z,98882.58
2018-05-31T00:56:13.161Z,98876.18
2018-05-31T00:56:34.429Z,98880.77
2018-05-31T00:56:56.060Z,98881.98
2018-05-31T00:57:18.424Z,98886.65
2018-05-31T00:57:39.707Z,98883.41
2018-05-31T00:58:02.061Z,98879.95
2018-05-31T00:58:24.783Z,98882.28
2018-05-31T00:58:47.564Z,98880.55
2018-05-31T00:59:08.804Z,98879.95
2018-05-31T00:59:30.809Z,98880.95
2018-05-31T00:59:53.809Z,98885.03
2018-05-31T01:00:15.048Z,98875.08
2018-05-31T01:00:36.809Z,98880.14
2018-05-31T01:00:59.839Z,98876.47
2018-05-31T01:01:22.305Z,98875.16
2018-05-31T01:01:43.997Z,98874.75
2018-05-31T01:02:05.225Z,98882.09
2018-05-31T01:02:27.287Z,98879.23
2018-05-31T01:02:48.566Z,98881.50
2018-05-31T01:03:09.809Z,98877.02
2018-05-31T01:03:32.821Z,98872.43
2018-05-31T01:03:54.066Z,98876.31
2018-05-31T01:04:16.120Z,98878.34
2018-05-31T01:04:37.729Z,98878.77
2018-05-31T01:04:59.089Z,98877.56
2018-05-31T01:05:22.114Z,98877.23
2018-05-31T01:05:44.097Z,98878.19
2018-05-31T01:06:05.791Z,98877.27
2018-05-31T01:06:27.497Z,98880.31
2018-05-31T01:06:49.226Z,98882.47
2018-05-31T01:07:10.573Z,98878.32
2018-05-31T01:07:32.661Z,98876.48
2018-05-31T01:07:54.276Z,98882.39
2018-05-31T01:08:17.280Z,98880.37
2018-05-31T01:08:38.531Z,98886.81
2018-05-31T01:09:00.537Z,98881.64
2018-05-31T01:09:22.581Z,98883.17
2018-05-31T01:09:45.569Z,98877.78
2018-05-31T01:10:08.552Z,98879.80
2018-05-31T01:10:30.568Z,98882.07
2018-05-31T01:10:53.565Z,98880.94
2018-05-31T01:11:16.901Z,98883.91
2018-05-31T01:11:38.120Z,98882.50
2018-05-31T01:11:59.376Z,98883.63
2018-05-31T01:12:21.618Z,98880.88
2018-05-31T01:12:43.283Z,98879.86
2018-05-31T01:13:05.310Z,98877.13
2018-05-31T01:13:27.320Z,98885.77
2018-05-31T01:13:49.694Z,98881.20
2018-05-31T01:14:10.978Z,98882.63
2018-05-31T01:14:33.329Z,98886.49
2018-05-31T01:14:55.312Z,98886.52
2018-05-31T01:15:17.276Z,98888.14
2018-05-31T01:15:40.320Z,98883.14
2018-05-31T01:16:01.627Z,98882.77
2018-05-31T01:16:23.244Z,98881.04
2018-05-31T01:16:45.298Z,98882.03
2018-05-31T01:17:07.333Z,98884.16
2018-05-31T01:17:28.658Z,98879.20
2018-05-31T01:17:50.360Z,98887.13
2018-05-31T01:18:13.088Z,98882.25
2018-05-31T01:18:34.353Z,98885.52
2018-05-31T01:18:56.345Z,98885.11
2018-05-31T01:19:18.694Z,98886.42
2018-05-31T01:19:40.275Z,98882.16
2018-05-31T01:20:01.519Z,98881.66
2018-05-31T01:20:23.509Z,98886.94
2018-05-31T01:20:44.822Z,98885.91
2018-05-31T01:21:06.033Z,98885.52
2018-05-31T01:21:29.053Z,98894.26
2018-05-31T01:21:50.682Z,98885.59
2018-05-31T01:22:11.978Z,98886.91
2018-05-31T01:22:33.288Z,98892.09
2018-05-31T01:22:54.924Z,98884.27
2018-05-31T01:23:16.558Z,98885.30
2018-05-31T01:23:38.176Z,98884.49
2018-05-31T01:24:00.145Z,98887.22
2018-05-31T01:24:23.153Z,98880.13
2018-05-31T01:24:46.132Z,98887.44
2018-05-31T01:25:09.139Z,98885.30
2018-05-31T01:25:31.122Z,98885.20
2018-05-31T01:25:53.155Z,98885.30
2018-05-31T01:26:16.270Z,98887.03
2018-05-31T01:26:37.902Z,98883.58
2018-05-31T01:26:59.210Z,98885.41
2018-05-31T01:27:20.493Z,98883.98
2018-05-31T01:27:42.850Z,98882.95
2018-05-31T01:28:04.856Z,98884.69
2018-05-31T01:28:27.817Z,98878.70
2018-05-31T01:28:50.840Z,98881.13
2018-05-31T01:29:13.419Z,98880.20
2018-05-31T01:29:36.176Z,98881.23
2018-05-31T01:29:58.184Z,98881.13
2018-05-31T01:30:20.981Z,98879.61
2018-05-31T01:30:43.942Z,98880.02
2018-05-31T01:31:05.700Z,98875.24
2018-05-31T01:31:26.974Z,98874.62
2018-05-31T01:31:49.310Z,98879.39
2018-05-31T01:32:11.679Z,98881.04
2018-05-31T01:32:33.858Z,98877.48
2018-05-31T01:32:55.096Z,98877.69
2018-05-31T01:33:16.346Z,98881.77
2018-05-31T01:33:37.620Z,98875.16
2018-05-31T01:33:59.249Z,98873.75
2018-05-31T01:34:20.506Z,98873.86
2018-05-31T01:34:42.145Z,98876.20
2018-05-31T01:35:03.378Z,98873.77
2018-05-31T01:35:26.411Z,98875.50
2018-05-31T01:35:48.418Z,98876.52
2018-05-31T01:36:09.711Z,98872.77
2018-05-31T01:36:31.734Z,98870.62
2018-05-31T01:36:53.343Z,98871.75
2018-05-31T01:37:16.113Z,98871.75
2018-05-31T01:37:39.145Z,98873.87
2018-05-31T01:38:19.553Z,98872.27
2018-05-31T01:38:40.938Z,98873.80
2018-05-31T01:39:02.258Z,98875.53
2018-05-31T01:39:23.541Z,98873.50
2018-05-31T01:39:45.171Z,98875.82
2018-05-31T01:40:06.464Z,98871.86
2018-05-31T01:40:27.754Z,98875.23
2018-05-31T01:40:49.383Z,98875.23
2018-05-31T01:41:12.190Z,98872.67
2018-05-31T01:41:33.832Z,98879.41
2018-05-31T01:41:55.084Z,98874.03
2018-05-31T01:42:18.139Z,98869.91
2018-05-31T01:42:39.806Z,98877.55
2018-05-31T01:43:01.075Z,98875.13
2018-05-31T01:43:22.379Z,98876.08
2018-05-31T01:43:44.847Z,98878.36
2018-05-31T01:44:06.106Z,98872.08
2018-05-31T01:44:28.830Z,98877.70
2018-05-31T01:44:50.434Z,98881.11
2018-05-31T01:45:12.876Z,98880.31
2018-05-31T01:45:35.889Z,98885.12
2018-05-31T01:45:57.939Z,98883.60
2018-05-31T01:46:19.198Z,98890.54
2018-05-31T01:46:42.206Z,98895.23
2018-05-31T01:47:04.534Z,98889.45
2018-05-31T01:47:26.597Z,98898.06
2018-05-31T01:47:48.998Z,98897.99
2018-05-31T01:48:10.655Z,98898.22
2018-05-31T01:48:33.655Z,98906.36
2018-05-31T01:48:54.918Z,98900.90
2018-05-31T01:49:18.083Z,98907.50
2018-05-31T01:49:39.765Z,98909.63
2018-05-31T01:50:01.768Z,98908.63
2018-05-31T01:50:24.765Z,98909.03
2018-05-31T01:50:47.744Z,98906.19
2018-05-31T01:51:09.711Z,98916.73
2018-05-31T01:51:30.992Z,98913.28
2018-05-31T01:51:53.997Z,98913.38
2018-05-31T01:52:15.291Z,98912.47
2018-05-31T01:52:36.979Z,98912.88
2018-05-31T01:52:58.570Z,98912.67
2018-05-31T01:53:20.165Z,98902.02
2018-05-31T01:53:43.130Z,98903.52
2018-05-31T01:54:05.162Z,98899.77
2018-05-31T01:54:26.448Z,98906.05
2018-05-31T01:54:49.481Z,98904.53
2018-05-31T01:55:12.500Z,98902.91
2018-05-31T01:55:35.211Z,98906.55
2018-05-31T01:55:57.562Z,98898.22
2018-05-31T01:56:20.287Z,98901.97
2018-05-31T01:56:41.895Z,98895.58
2018-05-31T01:57:04.860Z,98898.31
2018-05-31T01:57:26.851Z,98893.73
2018-05-31T01:57:50.272Z,98895.97
2018-05-31T01:58:12.002Z,98903.77
2018-05-31T01:58:33.653Z,98905.09
2018-05-31T01:58:56.363Z,98902.55
2018-05-31T01:59:19.101Z,98899.81
2018-05-31T01:59:41.095Z,98901.84
2018-05-31T02:00:02.762Z,98906.40
2018-05-31T02:00:24.820Z,98902.44
2018-05-31T02:00:46.104Z,98900.20
2018-05-31T02:01:07.721Z,98896.55
2018-05-31T02:01:30.716Z,98899.18
2018-05-31T02:01:52.332Z,98903.03
2018-05-31T02:02:13.981Z,98899.60
2018-05-31T02:02:35.226Z,98894.93
2018-05-31T02:02:57.961Z,98895.94
2018-05-31T02:03:19.621Z,98896.94
2018-05-31T02:03:41.635Z,98899.97
2018-05-31T02:04:04.386Z,98898.34
2018-05-31T02:04:26.732Z,98897.02
2018-05-31T02:04:48.726Z,98899.56
2018-05-31T02:05:10.734Z,98896.30
2018-05-31T02:05:31.980Z,98898.22
2018-05-31T02:05:53.227Z,98894.05
2018-05-31T02:06:15.808Z,98896.28
2018-05-31T02:06:37.055Z,98896.89
2018-05-31T02:06:58.356Z,98892.83
2018-05-31T02:07:19.647Z,98896.70
2018-05-31T02:07:42.175Z,98895.66
2018-05-31T02:08:03.381Z,98897.09
2018-05-31T02:08:26.413Z,98894.84
2018-05-31T02:08:47.616Z,98895.84
2018-05-31T02:09:09.596Z,98894.61
2018-05-31T02:09:31.648Z,98891.55
2018-05-31T02:09:52.963Z,98889.93
2018-05-31T02:10:15.013Z,98895.00
2018-05-31T02:10:36.652Z,98891.34
2018-05-31T02:10:57.932Z,98888.38
2018-05-31T02:11:21.002Z,98891.92
2018-05-31T02:11:42.741Z,98884.28
2018-05-31T02:12:05.116Z,98888.24
2018-05-31T02:12:27.124Z,98886.20
2018-05-31T02:12:48.373Z,98890.84
2018-05-31T02:13:10.811Z,98887.88
2018-05-31T02:13:32.447Z,98879.23
2018-05-31T02:13:55.401Z,98880.86
2018-05-31T02:14:17.013Z,98883.59
2018-05-31T02:14:39.988Z,98885.09
2018-05-31T02:15:02.954Z,98882.03
2018-05-31T02:15:25.948Z,98887.19
2018-05-31T02:15:48.930Z,98882.09
2018-05-31T02:16:10.986Z,98888.40
2018-05-31T02:16:32.988Z,98890.94
2018-05-31T02:16:55.979Z,98891.25
2018-05-31T02:17:17.242Z,98888.10
2018-05-31T02:17:39.601Z,98887.27
2018-05-31T02:18:02.373Z,98885.95
2018-05-31T02:18:24.710Z,98885.03
2018-05-31T02:18:45.961Z,98889.00
2018-05-31T02:19:08.311Z,98887.05
2018-05-31T02:19:29.955Z,98883.09
2018-05-31T02:19:51.596Z,98883.91
2018-05-31T02:20:13.189Z,98884.39
2018-05-31T02:20:36.188Z,98888.05
2018-05-31T02:20:58.981Z,98882.77
2018-05-31T02:21:21.380Z,98884.69
2018-05-31T02:21:42.597Z,98883.88
2018-05-31T02:22:04.301Z,98886.39
2018-05-31T02:22:27.301Z,98872.27
2018-05-31T02:22:49.131Z,98883.75
2018-05-31T02:23:12.155Z,98880.68
2018-05-31T02:23:33.378Z,98881.78
2018-05-31T02:23:54.630Z,98880.47
2018-05-31T02:24:15.896Z,98879.14
2018-05-31T02:24:37.505Z,98868.36
2018-05-31T02:25:00.536Z,98873.72
2018-05-31T02:25:22.882Z,98878.88
2018-05-31T02:25:44.145Z,98874.91
2018-05-31T02:26:06.517Z,98873.30
2018-05-31T02:26:29.491Z,98872.39
2018-05-31T02:26:52.477Z,98874.19
2018-05-31T02:27:14.091Z,98874.52
2018-05-31T02:27:36.905Z,98876.84
2018-05-31T02:27:59.324Z,98871.03
2018-05-31T02:28:20.956Z,98873.09
2018-05-31T02:28:42.223Z,98877.56
2018-05-31T02:29:05.246Z,98874.70
2018-05-31T02:29:27.290Z,98873.37
2018-05-31T02:29:48.980Z,98873.37
2018-05-31T02:30:10.225Z,98875.84
2018-05-31T02:30:31.829Z,98872.87
2018-05-31T02:30:54.826Z,98873.70
2018-05-31T02:31:16.967Z,98874.81
2018-05-31T02:31:38.551Z,98872.06
2018-05-31T02:32:01.543Z,98877.70
2018-05-31T02:32:24.565Z,98878.30
2018-05-31T02:32:45.822Z,98877.97
2018-05-31T02:33:07.059Z,98875.11
2018-05-31T02:33:29.029Z,98877.73
2018-05-31T02:33:52.012Z,98880.96
2018-05-31T02:34:13.603Z,98879.05
2018-05-31T02:34:35.235Z,98876.00
2018-05-31T02:34:58.216Z,98879.16
2018-05-31T02:35:19.445Z,98879.64
2018-05-31T02:35:41.927Z,98877.88
2018-05-31T02:36:04.908Z,98876.75
2018-05-31T02:36:26.559Z,98883.66
2018-05-31T02:36:48.531Z,98881.93
2018-05-31T02:37:10.547Z,98881.09
2018-05-31T02:37:32.172Z,98882.20
2018-05-31T02:37:53.445Z,98880.69
2018-05-31T02:38:16.224Z,98878.63
2018-05-31T02:38:37.867Z,98879.55
2018-05-31T02:38:59.141Z,98883.01
2018-05-31T02:39:21.504Z,98884.00
2018-05-31T02:39:42.718Z,98883.27
2018-05-31T02:40:05.075Z,98885.48
2018-05-31T02:40:26.294Z,98892.31
2018-05-31T02:40:47.932Z,98887.31
2018-05-31T02:41:10.923Z,98885.78
2018-05-31T02:41:33.911Z,98885.59
2018-05-31T02:41:55.542Z,98883.76
2018-05-31T02:42:16.826Z,98882.44
2018-05-31T02:42:38.832Z,98884.97
2018-05-31T02:43:01.178Z,98886.41
2018-05-31T02:43:22.809Z,98883.95
2018-05-31T02:43:44.031Z,98889.96
2018-05-31T02:44:05.339Z,98887.13
2018-05-31T02:44:26.579Z,98895.14
2018-05-31T02:44:47.877Z,98889.75
2018-05-31T02:45:09.903Z,98890.77
2018-05-31T02:45:31.573Z,98891.47
2018-05-31T02:45:54.542Z,98892.91
2018-05-31T02:46:16.535Z,98887.10
2018-05-31T02:46:38.148Z,98895.44
2018-05-31T02:47:00.516Z,98896.36
2018-05-31T02:47:22.162Z,98894.12
2018-05-31T02:47:43.811Z,98888.53
2018-05-31T02:48:05.422Z,98894.23
2018-05-31T02:48:26.696Z,98890.45
2018-05-31T02:48:48.359Z,98889.94
2018-05-31T02:49:11.365Z,98895.01
2018-05-31T02:49:32.676Z,98894.02
2018-05-31T02:49:54.642Z,98893.61
2018-05-31T02:50:16.293Z,98897.79
2018-05-31T02:50:37.913Z,98897.06
2018-05-31T02:50:59.207Z,98897.79
2018-05-31T02:51:20.433Z,98893.53
2018-05-31T02:51:41.685Z,98893.02
2018-05-31T02:52:03.335Z,98888.05
2018-05-31T02:52:24.592Z,98889.48
2018-05-31T02:52:46.568Z,98891.91
2018-05-31T02:53:09.604Z,98892.94
2018-05-31T02:53:30.813Z,98894.58
2018-05-31T02:53:53.216Z,98890.91
2018-05-31T02:54:15.247Z,98894.77
2018-05-31T02:54:38.220Z,98890.07
2018-05-31T02:54:59.854Z,98886.43
2018-05-31T02:55:21.096Z,98887.56
2018-05-31T02:55:42.371Z,98894.98
2018-05-31T02:56:04.354Z,98889.91
2018-05-31T02:56:25.627Z,98892.86
2018-05-31T02:56:48.631Z,98892.64
2018-05-31T02:57:11.385Z,98893.85
2018-05-31T02:57:34.467Z,98894.80
2018-05-31T02:57:56.085Z,98896.72
2018-05-31T02:58:18.066Z,98892.67
2018-05-31T02:58:39.291Z,98895.61
2018-05-31T02:59:00.559Z,98902.33
2018-05-31T02:59:23.262Z,98892.75
2018-05-31T02:59:44.937Z,98891.53
2018-05-31T03:00:06.914Z,98888.37
2018-05-31T03:00:29.857Z,98897.41
2018-05-31T03:00:51.091Z,98897.36
2018-05-31T03:01:12.717Z,98902.84
2018-05-31T03:01:35.754Z,98903.84
2018-05-31T03:01:57.370Z,98904.97
2018-05-31T03:02:18.622Z,98908.86
2018-05-31T03:02:40.230Z,98909.08
2018-05-31T03:03:02.242Z,98901.39
2018-05-31T03:03:24.969Z,98904.16
2018-05-31T03:03:47.676Z,98909.89
2018-05-31T03:04:09.289Z,98908.16
2018-05-31T03:04:32.244Z,98909.86
2018-05-31T03:04:54.260Z,98910.27
2018-05-31T03:05:15.488Z,98906.00
2018-05-31T03:05:38.484Z,98910.45
2018-05-31T03:06:00.449Z,98909.02
2018-05-31T03:06:21.818Z,98909.53
2018-05-31T03:06:43.455Z,98904.55
2018-05-31T03:07:05.857Z,98911.42
2018-05-31T03:07:27.870Z,98910.29
2018-05-31T03:07:50.273Z,98907.84
2018-05-31T03:08:12.599Z,98906.59
2018-05-31T03:08:33.838Z,98911.88
2018-05-31T03:08:56.842Z,98907.27
2018-05-31T03:09:19.244Z,98904.73
2018-05-31T03:09:40.848Z,98906.64
2018-05-31T03:10:02.908Z,98901.51
2018-05-31T03:10:27.320Z,98910.60
2018-05-31T03:10:48.922Z,98908.66
2018-05-31T03:11:10.938Z,98901.57
2018-05-31T03:11:33.662Z,98907.75
2018-05-31T03:11:55.286Z,98906.46
2018-05-31T03:12:17.665Z,98905.02
2018-05-31T03:12:38.941Z,98908.19
2018-05-31T03:13:01.321Z,98906.02
2018-05-31T03:13:23.003Z,98898.78
2018-05-31T03:13:45.735Z,98898.97
2018-05-31T03:14:11.723Z,98905.62
2018-05-31T03:14:33.793Z,98902.72
2018-05-31T03:14:56.545Z,98907.42
2018-05-31T03:15:19.284Z,98896.95
2018-05-31T03:15:42.260Z,98900.30
2018-05-31T03:16:03.505Z,98904.66
2018-05-31T03:16:25.846Z,98901.32
2018-05-31T03:16:48.829Z,98899.84
2018-05-31T03:17:10.102Z,98901.83
2018-05-31T03:17:31.342Z,98907.11
2018-05-31T03:17:53.707Z,98903.14
2018-05-31T03:18:16.066Z,98897.85
2018-05-31T03:18:37.292Z,98903.87
2018-05-31T03:18:58.606Z,98902.77
2018-05-31T03:19:19.847Z,98901.45
2018-05-31T03:19:42.222Z,98896.31
2018-05-31T03:20:03.519Z,98895.80
2018-05-31T03:20:24.782Z,98899.14
2018-05-31T03:20:47.163Z,98901.57
2018-05-31T03:21:09.213Z,98892.83
2018-05-31T03:21:30.813Z,98901.60
2018-05-31T03:21:53.786Z,98898.84
2018-05-31T03:22:16.548Z,98897.78
2018-05-31T03:22:38.553Z,98893.59
2018-05-31T03:23:00.541Z,98896.42
2018-05-31T03:23:23.521Z,98895.61
2018-05-31T03:23:44.778Z,98896.75
2018-05-31T03:24:07.840Z,98894.73
2018-05-31T03:24:30.801Z,98897.67
2018-05-31T03:24:52.053Z,98896.83
2018-05-31T03:25:14.047Z,98893.96
2018-05-31T03:25:37.043Z,98890.80
2018-05-31T03:25:58.285Z,98894.51
2018-05-31T03:26:20.607Z,98885.95
2018-05-31T03:26:42.686Z,98887.97
2018-05-31T03:27:04.685Z,98890.51
2018-05-31T03:27:26.289Z,98891.42
2018-05-31T03:27:47.513Z,98885.73
2018-05-31T03:28:09.601Z,98890.18
2018-05-31T03:28:32.309Z,98887.31
2018-05-31T03:28:54.285Z,98894.33
2018-05-31T03:29:17.113Z,98890.58
2018-05-31T03:29:39.844Z,98885.91
2018-05-31T03:30:01.515Z,98892.97
2018-05-31T03:30:24.558Z,98896.83
2018-05-31T03:30:45.877Z,98890.83
2018-05-31T03:31:07.886Z,98896.17
2018-05-31T03:31:29.481Z,98890.14
2018-05-31T03:31:51.116Z,98891.66
2018-05-31T03:32:13.458Z,98891.22
2018-05-31T03:32:35.076Z,98899.59
2018-05-31T03:32:56.370Z,98897.02
2018-05-31T03:33:18.378Z,98899.74
2018-05-31T03:33:40.072Z,98897.50
2018-05-31T03:34:01.379Z,98898.42
2018-05-31T03:34:24.309Z,98905.22
2018-05-31T03:34:47.369Z,98906.14
2018-05-31T03:35:08.967Z,98908.49
2018-05-31T03:35:31.334Z,98903.38
2018-05-31T03:35:53.349Z,98908.16
2018-05-31T03:36:15.349Z,98909.27
2018-05-31T03:36:36.965Z,98909.64
2018-05-31T03:36:58.249Z,98908.50
2018-05-31T03:37:19.559Z,98909.49
2018-05-31T03:37:42.319Z,98903.02
2018-05-31T03:38:03.618Z,98908.72
2018-05-31T03:38:24.870Z,98906.96
2018-05-31T03:38:47.866Z,98907.54
2018-05-31T03:39:10.008Z,98906.25
2018-05-31T03:39:31.660Z,98908.46
2018-05-31T03:39:52.914Z,98910.27
2018-05-31T03:40:14.915Z,98900.44
2018-05-31T03:40:36.188Z,98907.65
2018-05-31T03:40:57.829Z,98912.69
2018-05-31T03:41:19.418Z,98908.67
2018-05-31T03:41:42.380Z,98911.58
2018-05-31T03:42:04.418Z,98905.44
2018-05-31T03:42:26.023Z,98912.23
2018-05-31T03:42:48.053Z,98908.04
2018-05-31T03:43:09.347Z,98901.71
2018-05-31T03:43:30.609Z,98916.23
2018-05-31T03:43:51.836Z,98907.95
2018-05-31T03:44:14.213Z,98902.84
2018-05-31T03:44:35.452Z,98907.40
2018-05-31T03:44:58.465Z,98906.14
2018-05-31T03:45:21.589Z,98908.05
2018-05-31T03:45:44.301Z,98902.94
2018-05-31T03:46:06.289Z,98905.84
2018-05-31T03:46:28.621Z,98909.18
2018-05-31T03:46:51.601Z,98907.81
2018-05-31T03:47:13.603Z,98907.48
2018-05-31T03:47:35.603Z,98904.60
2018-05-31T03:47:56.875Z,98908.75
2018-05-31T03:48:18.140Z,98905.88
2018-05-31T03:48:41.141Z,98907.86
2018-05-31T03:49:02.389Z,98915.00
2018-05-31T03:49:23.767Z,98908.48
2018-05-31T03:49:45.395Z,98908.66
2018-05-31T03:50:08.365Z,98909.81
2018-05-31T03:50:30.705Z,98910.80
2018-05-31T03:50:53.426Z,98909.42
2018-05-31T03:51:15.181Z,98910.87
2018-05-31T03:51:36.443Z,98908.91
2018-05-31T03:51:57.711Z,98909.06
2018-05-31T03:52:20.067Z,98912.77
2018-05-31T03:52:42.147Z,98912.09
2018-05-31T03:53:03.780Z,98911.06
2018-05-31T03:53:24.999Z,98911.17
2018-05-31T03:53:46.244Z,98909.91
2018-05-31T03:54:09.247Z,98910.50
2018-05-31T03:54:31.258Z,98912.92
2018-05-31T03:54:54.269Z,98910.45
2018-05-31T03:55:17.248Z,98912.70
2018-05-31T03:55:38.946Z,98907.80
2018-05-31T03:56:00.185Z,98907.98
2018-05-31T03:56:21.785Z,98907.67
2018-05-31T03:56:43.777Z,98904.31
2018-05-31T03:57:06.791Z,98905.11
2018-05-31T03:57:29.761Z,98908.05
2018-05-31T03:57:52.463Z,98910.89
2018-05-31T03:58:14.461Z,98905.88
2018-05-31T03:58:37.429Z,98904.20
2018-05-31T03:58:59.813Z,98908.48
2018-05-31T03:59:21.428Z,98909.17
2018-05-31T03:59:43.805Z,98904.56
2018-05-31T04:00:05.140Z,98908.72
2018-05-31T04:00:26.769Z,98909.30
2018-05-31T04:00:49.181Z,98905.50
2018-05-31T04:01:11.194Z,98905.38
2018-05-31T04:01:33.979Z,98904.58
2018-05-31T04:01:55.210Z,98906.70
2018-05-31T04:02:16.445Z,98909.25
2018-05-31T04:02:37.682Z,98908.95
2018-05-31T04:02:58.981Z,98907.28
2018-05-31T04:03:20.241Z,98907.17
2018-05-31T04:03:41.457Z,98912.66
2018-05-31T04:04:03.450Z,98908.22
2018-05-31T04:04:24.678Z,98912.48
2018-05-31T04:04:45.942Z,98914.16
2018-05-31T04:05:07.606Z,98909.15
2018-05-31T04:05:29.282Z,98907.19
2018-05-31T04:05:50.498Z,98909.67
2018-05-31T04:06:11.730Z,98904.55
2018-05-31T04:06:33.334Z,98909.69
2018-05-31T04:06:54.976Z,98908.59
2018-05-31T04:07:16.596Z,98908.71
2018-05-31T04:07:38.175Z,98910.97
2018-05-31T04:07:59.443Z,98918.41
2018-05-31T04:08:20.694Z,98911.54
2018-05-31T04:08:42.701Z,98913.56
2018-05-31T04:09:05.099Z,98915.58
2018-05-31T04:09:26.317Z,98912.19
2018-05-31T04:09:47.625Z,98912.19
2018-05-31T04:10:08.962Z,98911.14
2018-05-31T04:10:30.194Z,98911.70
2018-05-31T04:10:51.510Z,98913.54
2018-05-31T04:11:13.859Z,98915.38
2018-05-31T04:11:35.076Z,98913.06
2018-05-31T04:11:56.346Z,98912.09
2018-05-31T04:12:17.588Z,98911.70
2018-05-31T04:12:38.803Z,98906.27
2018-05-31T04:13:00.515Z,98909.44
2018-05-31T04:13:22.030Z,98910.12
2018-05-31T04:13:43.313Z,98910.12
2018-05-31T04:14:05.340Z,98906.48
2018-05-31T04:14:27.359Z,98903.37
2018-05-31T04:14:50.360Z,98910.48
2018-05-31T04:15:12.001Z,98912.11
2018-05-31T04:15:33.626Z,98908.42
2018-05-31T04:15:55.288Z,98908.31
2018-05-31T04:16:16.913Z,98905.09
2018-05-31T04:16:39.880Z,98906.88
2018-05-31T04:17:02.273Z,98910.70
2018-05-31T04:17:23.898Z,98909.95
2018-05-31T04:19:38.607Z,98914.14
2018-05-31T04:20:00.025Z,98900.81
2018-05-31T04:20:23.342Z,98906.00
2018-05-31T04:20:45.494Z,98902.14